Karmel — 9HA2896 — position and weather

sailwx.info

Track history (hours):
 
Tides and Currents Weather Stations Pressure Air Temp Water Temp Dewpoint Dewpoint Depression Visibility Wind Speed Wind Dir Waves Ship Positions

Karmel

Last reported at 2016-Feb-09 06:34 UTC. Time now 2016-Feb-09 07:43 UTC.
Position N 55°55' E 012°38'.

Length 90 m; draft 5.1 m.

Type: Cargo ship. MMSI: 256632000.

Date/timePositionNaut miles runAvg speedWind from/ knotsBaromVisibWave heightAir tempDewpointWater temp
2016-Feb-09 06:34N 55°55' E 012°38'9 9.3
2016-Feb-09 05:33N 56°04' E 012°36'47 9.3
2016-Feb-09 00:33N 56°44' E 011°52'10 9.5
2016-Feb-08 23:33N 56°53' E 011°47'11 9.5
2016-Feb-08 22:26N 57°03' E 011°40'8 9.4
2016-Feb-08 21:33N 57°11' E 011°35'10 9.6
2016-Feb-08 20:33N 57°20' E 011°29'10 9.6
2016-Feb-08 19:34N 57°29' E 011°22'1010.2
2016-Feb-08 18:33N 57°36' E 011°08'10 9.9
2016-Feb-08 17:32N 57°43' E 010°54'9 9.5
2016-Feb-08 16:33N 57°50' E 010°44'8 8.5
2016-Feb-08 15:33N 57°58' E 010°40'8 8.1
2016-Feb-08 14:33N 58°05' E 010°29'9 8.6
2016-Feb-08 13:33N 58°09' E 010°15'40 8.0
2016-Feb-08 08:30N 58°06' E 008°59'7 7.7
2016-Feb-08 07:33N 58°04' E 008°45'7 7.0
2016-Feb-08 06:34N 58°03' E 008°32'8 7.2
2016-Feb-08 05:29N 58°01' E 008°18'35 8.7
2016-Feb-08 01:27N 57°51' E 007°15'8 8.6
2016-Feb-08 00:33N 57°49' E 007°01'8 8.1
2016-Feb-07 23:33N 57°46' E 006°47'7 7.4
2016-Feb-07 22:33N 57°44' E 006°34'4 4.3
2016-Feb-07 21:33N 57°48' E 006°31'4 4.2
2016-Feb-07 20:33N 57°52' E 006°27'5 4.7
2016-Feb-07 19:33N 57°56' E 006°22'5 5.3
2016-Feb-07 18:33N 57°60' E 006°14'5 5.0
2016-Feb-07 17:34N 58°03' E 006°08'5 5.3
2016-Feb-07 16:32N 58°08' E 006°02'6 6.4
2016-Feb-07 15:33N 58°13' E 005°56'14 6.8
2016-Feb-07 13:32N 58°25' E 005°42'7 6.8
2016-Feb-07 12:33N 58°30' E 005°36'6 6.3
2016-Feb-07 11:33N 58°36' E 005°30'6 6.3
2016-Feb-07 10:34N 58°41' E 005°25'6 5.7
2016-Feb-07 09:33N 58°46' E 005°19'5 5.5
2016-Feb-07 08:33N 58°51' E 005°14'5 5.3
2016-Feb-07 07:33N 58°56' E 005°09'5 5.2
2016-Feb-07 06:33N 59°00' E 005°04'5 5.2
2016-Feb-07 05:33N 59°05' E 004°59'5 5.3
2016-Feb-07 04:33N 59°09' E 004°54'5 5.1
2016-Feb-07 03:33N 59°14' E 004°49'5 4.7
2016-Feb-07 02:32N 59°18' E 004°47'  
2016-Feb-03 23:29N 54°20' E 000°47'9 8.1
2016-Feb-03 22:25N 54°12' E 000°41'7 8.4
2016-Feb-03 21:33N 54°05' E 000°36'8 8.4
2016-Feb-03 20:33N 53°57' E 000°33'13 9.3
2016-Feb-03 19:12N 53°44' E 000°31'710.5
2016-Feb-03 18:33N 53°38' E 000°30'2410.7
2016-Feb-03 16:21N 53°15' E 000°43'8 9.6
2016-Feb-03 15:31N 53°10' E 000°52'9 9.1
2016-Feb-03 14:33N 53°04' E 001°03'9 8.6
2016-Feb-03 13:33N 52°59' E 001°15'9 8.6
2016-Feb-03 12:33N 52°55' E 001°28'10 9.6
2016-Feb-03 11:33N 52°50' E 001°41'1211.6
2016-Feb-03 10:33N 52°39' E 001°46'1312.5
2016-Feb-03 09:33N 52°27' E 001°51'1312.8
2016-Feb-03 08:33N 52°14' E 001°50'1211.8
2016-Feb-03 07:33N 52°02' E 001°49'1111.1
2016-Feb-03 06:33N 51°51' E 001°48'1010.1
2016-Feb-03 05:33N 51°41' E 001°49'10 9.6
2016-Feb-03 04:33N 51°32' E 001°55'9 9.2
2016-Feb-03 03:33N 51°24' E 002°02'10 9.9
2016-Feb-03 02:33N 51°20' E 002°17'1010.2
2016-Feb-03 01:33N 51°23' E 002°33'8 7.8
2016-Feb-03 00:33N 51°22' E 002°45'10 9.6
2016-Feb-02 23:33N 51°22' E 003°00'10 9.7
2016-Feb-02 22:33N 51°24' E 003°16'1010.2
2016-Feb-02 21:33N 51°25' E 003°32'8 8.1
2016-Feb-02 20:33N 51°22' E 003°44'4 4.3
2016-Feb-02 19:34N 51°19' E 003°49'6 6.3
2016-Feb-02 18:34N 51°13' E 003°48'5 4.5
2016-Feb-02 17:32N 51°09' E 003°48'0 0.0
2016-Feb-02 16:32N 51°09' E 003°48'0 0.0
2016-Feb-02 15:34N 51°09' E 003°48'0 0.0
2016-Feb-02 14:33N 51°09' E 003°48'0 0.0
2016-Feb-02 13:31N 51°09' E 003°48'0 0.0
2016-Feb-02 12:32N 51°09' E 003°48'0 0.0
2016-Feb-02 11:32N 51°09' E 003°48'0 0.0
2016-Feb-02 10:33N 51°09' E 003°48'0 0.0
2016-Feb-02 09:31N 51°09' E 003°48'0 0.0
2016-Feb-02 08:31N 51°09' E 003°48'0 0.0
2016-Feb-02 07:33N 51°09' E 003°48'0 0.0
2016-Feb-02 06:28N 51°09' E 003°48'0 0.0
2016-Feb-02 05:31N 51°09' E 003°48'0 0.0
2016-Feb-02 04:32N 51°09' E 003°48'0 0.0
2016-Feb-02 03:30N 51°09' E 003°48'0 0.0
2016-Feb-02 02:33N 51°09' E 003°48'0 0.0
2016-Feb-02 01:30N 51°09' E 003°48'0 0.0
2016-Feb-02 00:32N 51°09' E 003°48'0 0.0
2016-Feb-01 23:32N 51°09' E 003°48'0 0.0
2016-Feb-01 22:28N 51°09' E 003°48'0 0.0
2016-Feb-01 21:33N 51°09' E 003°48'0 0.0
2016-Feb-01 20:34N 51°09' E 003°48'0 0.0
2016-Feb-01 19:31N 51°09' E 003°48'0 0.0
2016-Feb-01 18:32N 51°09' E 003°48'0 0.0
2016-Feb-01 17:33N 51°09' E 003°48'0 0.0
2016-Feb-01 16:32N 51°09' E 003°48'0 0.0
2016-Feb-01 15:32N 51°09' E 003°48'0 0.0
2016-Feb-01 14:33N 51°09' E 003°48'0 0.0
2016-Feb-01 13:32N 51°09' E 003°48'0 0.0
2016-Feb-01 12:34N 51°09' E 003°48'0 0.0
2016-Feb-01 11:25N 51°09' E 003°48'0 0.0
2016-Feb-01 10:32N 51°09' E 003°48'0 0.0
2016-Feb-01 09:32N 51°09' E 003°48'0 0.0
2016-Feb-01 08:32N 51°09' E 003°48'0 0.0
2016-Feb-01 07:32N 51°09' E 003°48'0 0.0
2016-Feb-01 06:33N 51°09' E 003°48'1 0.7
2016-Feb-01 05:33N 51°09' E 003°47'0 0.0
2016-Feb-01 04:33N 51°09' E 003°47'0 0.0
2016-Feb-01 03:33N 51°09' E 003°47'0 0.0
2016-Feb-01 02:33N 51°09' E 003°47'0 0.0
2016-Feb-01 01:33N 51°09' E 003°47'0 0.0
2016-Feb-01 00:33N 51°09' E 003°47'0 0.0
2016-Jan-31 23:33N 51°09' E 003°47'0 0.0
2016-Jan-31 22:33N 51°09' E 003°47'0 0.0
2016-Jan-31 21:33N 51°09' E 003°47'0 0.0
2016-Jan-31 20:33N 51°09' E 003°47'0 0.0
2016-Jan-31 19:33N 51°09' E 003°47'0 0.0
2016-Jan-31 18:33N 51°09' E 003°47'0 0.0
2016-Jan-31 17:32N 51°09' E 003°47'0 0.0
2016-Jan-31 16:32N 51°09' E 003°47'0 0.0
2016-Jan-31 15:32N 51°09' E 003°47'0 0.0
2016-Jan-31 14:32N 51°09' E 003°47'0 0.0
2016-Jan-31 13:32N 51°09' E 003°47'0 0.0
2016-Jan-31 12:32N 51°09' E 003°47'0 0.0
2016-Jan-31 11:32N 51°09' E 003°47'0 0.0
2016-Jan-31 10:32N 51°09' E 003°47'0 0.0
2016-Jan-31 09:32N 51°09' E 003°47'0 0.0
2016-Jan-31 08:29N 51°09' E 003°47'0 0.0
2016-Jan-31 07:32N 51°09' E 003°47'0 0.0
2016-Jan-31 06:32N 51°09' E 003°47'0 0.0
2016-Jan-31 05:32N 51°09' E 003°47'0 0.0
2016-Jan-31 04:32N 51°09' E 003°47'0 0.0
2016-Jan-31 03:32N 51°09' E 003°47'0 0.0
2016-Jan-31 02:32N 51°09' E 003°47'0 0.0
2016-Jan-31 01:32N 51°09' E 003°47'0 0.0
2016-Jan-31 00:32N 51°09' E 003°47'0 0.0
2016-Jan-30 23:32N 51°09' E 003°47'0 0.0
2016-Jan-30 22:26N 51°09' E 003°47'0 0.0
2016-Jan-30 21:32N 51°09' E 003°47'0 0.0
2016-Jan-30 20:32N 51°09' E 003°47'0 0.0
2016-Jan-30 19:32N 51°09' E 003°47'0 0.0
2016-Jan-30 18:32N 51°09' E 003°47'0 0.0
2016-Jan-30 17:32N 51°09' E 003°47'0 0.0
2016-Jan-30 16:32N 51°09' E 003°47'0 0.0
2016-Jan-30 15:32N 51°09' E 003°47'0 0.0
2016-Jan-30 14:32N 51°09' E 003°47'0 0.0
2016-Jan-30 13:32N 51°09' E 003°47'0 0.0
2016-Jan-30 12:32N 51°09' E 003°47'0 0.0
2016-Jan-30 11:32N 51°09' E 003°47'0 0.0
2016-Jan-30 10:32N 51°09' E 003°47'0 0.0
2016-Jan-30 09:31N 51°09' E 003°47'0 0.0
2016-Jan-30 08:31N 51°09' E 003°47'0 0.0
2016-Jan-30 07:31N 51°09' E 003°47'  
Track history (hours):
 
Tides and Currents Weather Stations Pressure Air Temp Water Temp Dewpoint Dewpoint Depression Visibility Wind Speed Wind Dir Waves Ship Positions

Karmel

Last reported at 2016-Feb-09 06:34 UTC. Time now 2016-Feb-09 07:43 UTC.
Position N 55°55' E 012°38'.

Length 90 m; draft 5.1 m.

Type: Cargo ship. MMSI: 256632000.

Date/timePositionNaut miles runAvg speedWind from/ knotsBaromVisibWave heightAir tempDewpointWater temp
2016-Feb-09 06:34N 55°55' E 012°38'9 9.3
2016-Feb-09 05:33N 56°04' E 012°36'47 9.3
2016-Feb-09 00:33N 56°44' E 011°52'10 9.5
2016-Feb-08 23:33N 56°53' E 011°47'11 9.5
2016-Feb-08 22:26N 57°03' E 011°40'8 9.4
2016-Feb-08 21:33N 57°11' E 011°35'10 9.6
2016-Feb-08 20:33N 57°20' E 011°29'10 9.6
2016-Feb-08 19:34N 57°29' E 011°22'1010.2
2016-Feb-08 18:33N 57°36' E 011°08'10 9.9
2016-Feb-08 17:32N 57°43' E 010°54'9 9.5
2016-Feb-08 16:33N 57°50' E 010°44'8 8.5
2016-Feb-08 15:33N 57°58' E 010°40'8 8.1
2016-Feb-08 14:33N 58°05' E 010°29'9 8.6
2016-Feb-08 13:33N 58°09' E 010°15'40 8.0
2016-Feb-08 08:30N 58°06' E 008°59'7 7.7
2016-Feb-08 07:33N 58°04' E 008°45'7 7.0
2016-Feb-08 06:34N 58°03' E 008°32'8 7.2
2016-Feb-08 05:29N 58°01' E 008°18'35 8.7
2016-Feb-08 01:27N 57°51' E 007°15'8 8.6
2016-Feb-08 00:33N 57°49' E 007°01'8 8.1
2016-Feb-07 23:33N 57°46' E 006°47'7 7.4
2016-Feb-07 22:33N 57°44' E 006°34'4 4.3
2016-Feb-07 21:33N 57°48' E 006°31'4 4.2
2016-Feb-07 20:33N 57°52' E 006°27'5 4.7
2016-Feb-07 19:33N 57°56' E 006°22'5 5.3
2016-Feb-07 18:33N 57°60' E 006°14'5 5.0
2016-Feb-07 17:34N 58°03' E 006°08'5 5.3
2016-Feb-07 16:32N 58°08' E 006°02'6 6.4
2016-Feb-07 15:33N 58°13' E 005°56'14 6.8
2016-Feb-07 13:32N 58°25' E 005°42'7 6.8
2016-Feb-07 12:33N 58°30' E 005°36'6 6.3
2016-Feb-07 11:33N 58°36' E 005°30'6 6.3
2016-Feb-07 10:34N 58°41' E 005°25'6 5.7
2016-Feb-07 09:33N 58°46' E 005°19'5 5.5
2016-Feb-07 08:33N 58°51' E 005°14'5 5.3
2016-Feb-07 07:33N 58°56' E 005°09'5 5.2
2016-Feb-07 06:33N 59°00' E 005°04'5 5.2
2016-Feb-07 05:33N 59°05' E 004°59'5 5.3
2016-Feb-07 04:33N 59°09' E 004°54'5 5.1
2016-Feb-07 03:33N 59°14' E 004°49'5 4.7
2016-Feb-07 02:32N 59°18' E 004°47'  
2016-Feb-03 23:29N 54°20' E 000°47'9 8.1
2016-Feb-03 22:25N 54°12' E 000°41'7 8.4
2016-Feb-03 21:33N 54°05' E 000°36'8 8.4
2016-Feb-03 20:33N 53°57' E 000°33'13 9.3
2016-Feb-03 19:12N 53°44' E 000°31'710.5
2016-Feb-03 18:33N 53°38' E 000°30'2410.7
2016-Feb-03 16:21N 53°15' E 000°43'8 9.6
2016-Feb-03 15:31N 53°10' E 000°52'9 9.1
2016-Feb-03 14:33N 53°04' E 001°03'9 8.6
2016-Feb-03 13:33N 52°59' E 001°15'9 8.6
2016-Feb-03 12:33N 52°55' E 001°28'10 9.6
2016-Feb-03 11:33N 52°50' E 001°41'1211.6
2016-Feb-03 10:33N 52°39' E 001°46'1312.5
2016-Feb-03 09:33N 52°27' E 001°51'1312.8
2016-Feb-03 08:33N 52°14' E 001°50'1211.8
2016-Feb-03 07:33N 52°02' E 001°49'1111.1
2016-Feb-03 06:33N 51°51' E 001°48'1010.1
2016-Feb-03 05:33N 51°41' E 001°49'10 9.6
2016-Feb-03 04:33N 51°32' E 001°55'9 9.2
2016-Feb-03 03:33N 51°24' E 002°02'10 9.9
2016-Feb-03 02:33N 51°20' E 002°17'1010.2
2016-Feb-03 01:33N 51°23' E 002°33'8 7.8
2016-Feb-03 00:33N 51°22' E 002°45'10 9.6
2016-Feb-02 23:33N 51°22' E 003°00'10 9.7
2016-Feb-02 22:33N 51°24' E 003°16'1010.2
2016-Feb-02 21:33N 51°25' E 003°32'8 8.1
2016-Feb-02 20:33N 51°22' E 003°44'4 4.3
2016-Feb-02 19:34N 51°19' E 003°49'6 6.3
2016-Feb-02 18:34N 51°13' E 003°48'5 4.5
2016-Feb-02 17:32N 51°09' E 003°48'0 0.0
2016-Feb-02 16:32N 51°09' E 003°48'0 0.0
2016-Feb-02 15:34N 51°09' E 003°48'0 0.0
2016-Feb-02 14:33N 51°09' E 003°48'0 0.0
2016-Feb-02 13:31N 51°09' E 003°48'0 0.0
2016-Feb-02 12:32N 51°09' E 003°48'0 0.0
2016-Feb-02 11:32N 51°09' E 003°48'0 0.0
2016-Feb-02 10:33N 51°09' E 003°48'0 0.0
2016-Feb-02 09:31N 51°09' E 003°48'0 0.0
2016-Feb-02 08:31N 51°09' E 003°48'0 0.0
2016-Feb-02 07:33N 51°09' E 003°48'0 0.0
2016-Feb-02 06:28N 51°09' E 003°48'0 0.0
2016-Feb-02 05:31N 51°09' E 003°48'0 0.0
2016-Feb-02 04:32N 51°09' E 003°48'0 0.0
2016-Feb-02 03:30N 51°09' E 003°48'0 0.0
2016-Feb-02 02:33N 51°09' E 003°48'0 0.0
2016-Feb-02 01:30N 51°09' E 003°48'0 0.0
2016-Feb-02 00:32N 51°09' E 003°48'0 0.0
2016-Feb-01 23:32N 51°09' E 003°48'0 0.0
2016-Feb-01 22:28N 51°09' E 003°48'0 0.0
2016-Feb-01 21:33N 51°09' E 003°48'0 0.0
2016-Feb-01 20:34N 51°09' E 003°48'0 0.0
2016-Feb-01 19:31N 51°09' E 003°48'0 0.0
2016-Feb-01 18:32N 51°09' E 003°48'0 0.0
2016-Feb-01 17:33N 51°09' E 003°48'0 0.0
2016-Feb-01 16:32N 51°09' E 003°48'0 0.0
2016-Feb-01 15:32N 51°09' E 003°48'0 0.0
2016-Feb-01 14:33N 51°09' E 003°48'0 0.0
2016-Feb-01 13:32N 51°09' E 003°48'0 0.0
2016-Feb-01 12:34N 51°09' E 003°48'0 0.0
2016-Feb-01 11:25N 51°09' E 003°48'0 0.0
2016-Feb-01 10:32N 51°09' E 003°48'0 0.0
2016-Feb-01 09:32N 51°09' E 003°48'0 0.0
2016-Feb-01 08:32N 51°09' E 003°48'0 0.0
2016-Feb-01 07:32N 51°09' E 003°48'0 0.0
2016-Feb-01 06:33N 51°09' E 003°48'1 0.7
2016-Feb-01 05:33N 51°09' E 003°47'0 0.0
2016-Feb-01 04:33N 51°09' E 003°47'0 0.0
2016-Feb-01 03:33N 51°09' E 003°47'0 0.0
2016-Feb-01 02:33N 51°09' E 003°47'0 0.0
2016-Feb-01 01:33N 51°09' E 003°47'0 0.0
2016-Feb-01 00:33N 51°09' E 003°47'0 0.0
2016-Jan-31 23:33N 51°09' E 003°47'0 0.0
2016-Jan-31 22:33N 51°09' E 003°47'0 0.0
2016-Jan-31 21:33N 51°09' E 003°47'0 0.0
2016-Jan-31 20:33N 51°09' E 003°47'0 0.0
2016-Jan-31 19:33N 51°09' E 003°47'0 0.0
2016-Jan-31 18:33N 51°09' E 003°47'0 0.0
2016-Jan-31 17:32N 51°09' E 003°47'0 0.0
2016-Jan-31 16:32N 51°09' E 003°47'0 0.0
2016-Jan-31 15:32N 51°09' E 003°47'0 0.0
2016-Jan-31 14:32N 51°09' E 003°47'0 0.0
2016-Jan-31 13:32N 51°09' E 003°47'0 0.0
2016-Jan-31 12:32N 51°09' E 003°47'0 0.0
2016-Jan-31 11:32N 51°09' E 003°47'0 0.0
2016-Jan-31 10:32N 51°09' E 003°47'0 0.0
2016-Jan-31 09:32N 51°09' E 003°47'0 0.0
2016-Jan-31 08:29N 51°09' E 003°47'0 0.0
2016-Jan-31 07:32N 51°09' E 003°47'0 0.0
2016-Jan-31 06:32N 51°09' E 003°47'0 0.0
2016-Jan-31 05:32N 51°09' E 003°47'0 0.0
2016-Jan-31 04:32N 51°09' E 003°47'0 0.0
2016-Jan-31 03:32N 51°09' E 003°47'0 0.0
2016-Jan-31 02:32N 51°09' E 003°47'0 0.0
2016-Jan-31 01:32N 51°09' E 003°47'0 0.0
2016-Jan-31 00:32N 51°09' E 003°47'0 0.0
2016-Jan-30 23:32N 51°09' E 003°47'0 0.0
2016-Jan-30 22:26N 51°09' E 003°47'0 0.0
2016-Jan-30 21:32N 51°09' E 003°47'0 0.0
2016-Jan-30 20:32N 51°09' E 003°47'0 0.0
2016-Jan-30 19:32N 51°09' E 003°47'0 0.0
2016-Jan-30 18:32N 51°09' E 003°47'0 0.0
2016-Jan-30 17:32N 51°09' E 003°47'0 0.0
2016-Jan-30 16:32N 51°09' E 003°47'0 0.0
2016-Jan-30 15:32N 51°09' E 003°47'0 0.0
2016-Jan-30 14:32N 51°09' E 003°47'0 0.0
2016-Jan-30 13:32N 51°09' E 003°47'0 0.0
2016-Jan-30 12:32N 51°09' E 003°47'0 0.0
2016-Jan-30 11:32N 51°09' E 003°47'0 0.0
2016-Jan-30 10:32N 51°09' E 003°47'0 0.0
2016-Jan-30 09:31N 51°09' E 003°47'0 0.0
2016-Jan-30 08:31N 51°09' E 003°47'0 0.0
2016-Jan-30 07:31N 51°09' E 003°47'  

Dump ship's entire track history